Portada
METAR-TAF:

METAR-TAF

Aeroports :

Ashe County Airport

West Jefferson, Carolina del Nord, Estats Units d'Amèrica

latitud: 36-26N, longitud: 081-25W, altitud: 969 m

Observació

L'informe es va fer fa 13 minuts, a les 12:55 UTC
Vent calma
Temperatura 1°C
Humitat 86%
Pressió 1009 hPa
Visibilitat: 16.1 km
Cel cobert a una alçada de 2400 ft

METAR: KGEV 191255Z AUTO 00000KT 10SM OVC024 01/M01 A2980 RMK AO2 T00091007

Hora: 08:08 (13:08 UTC)


TAF: manca

Observacions i pronòstics meteorològics de més de 4000 aeroports (METAR i TAF).

Les estacions disponibles són els punts grocs i vermells al mapa.

Posi el ratolí al punt desitjat per veure el nom de l'estació.

Feu clic per veure les observacions i els pronòstics meteorològics.

Per canviar el mapa: feu clic els botons verds amb una creu de color negre per apropar; al botó verd amb un guió per allunyar la imatge; o en les fletxes verdes per a mapes adjacents.


METAR-TAF: